sensor_id;sensor_type;location;lat;lon;timestamp;temperature;humidity
37460;DHT22;23318;50.966;5.284;2023-02-01T00:01:29;5.80;99.90
37460;DHT22;23318;50.966;5.284;2023-02-01T00:03:55;5.90;99.90
37460;DHT22;23318;50.966;5.284;2023-02-01T00:06:21;6.00;99.90
37460;DHT22;23318;50.966;5.284;2023-02-01T00:08:46;6.00;99.90
37460;DHT22;23318;50.966;5.284;2023-02-01T00:11:12;6.00;99.90
37460;DHT22;23318;50.966;5.284;2023-02-01T00:13:40;5.90;99.90
37460;DHT22;23318;50.966;5.284;2023-02-01T00:16:17;5.80;99.90
37460;DHT22;23318;50.966;5.284;2023-02-01T00:18:47;5.80;99.90
37460;DHT22;23318;50.966;5.284;2023-02-01T00:21:16;5.70;99.90
37460;DHT22;23318;50.966;5.284;2023-02-01T00:23:42;5.60;99.90
37460;DHT22;23318;50.966;5.284;2023-02-01T00:26:16;5.60;99.90
37460;DHT22;23318;50.966;5.284;2023-02-01T00:28:42;5.60;99.90
37460;DHT22;23318;50.966;5.284;2023-02-01T00:31:08;5.50;99.90
37460;DHT22;23318;50.966;5.284;2023-02-01T00:33:34;5.60;99.90
37460;DHT22;23318;50.966;5.284;2023-02-01T00:36:01;5.60;99.90
37460;DHT22;23318;50.966;5.284;2023-02-01T00:38:31;5.60;99.90
37460;DHT22;23318;50.966;5.284;2023-02-01T00:41:11;5.70;99.90
37460;DHT22;23318;50.966;5.284;2023-02-01T00:43:37;5.70;99.90
37460;DHT22;23318;50.966;5.284;2023-02-01T00:46:04;5.70;99.90
37460;DHT22;23318;50.966;5.284;2023-02-01T00:48:30;5.70;99.90
37460;DHT22;23318;50.966;5.284;2023-02-01T00:51:03;5.70;99.90
37460;DHT22;23318;50.966;5.284;2023-02-01T00:53:29;5.90;99.90
37460;DHT22;23318;50.966;5.284;2023-02-01T00:55:55;5.90;99.90
37460;DHT22;23318;50.966;5.284;2023-02-01T00:58:22;5.90;99.90
37460;DHT22;23318;50.966;5.284;2023-02-01T01:01:09;5.90;99.90
37460;DHT22;23318;50.966;5.284;2023-02-01T01:03:43;6.00;99.90
37460;DHT22;23318;50.966;5.284;2023-02-01T01:06:12;6.10;99.90
37460;DHT22;23318;50.966;5.284;2023-02-01T01:08:38;6.10;99.90
37460;DHT22;23318;50.966;5.284;2023-02-01T01:11:11;6.10;99.90
37460;DHT22;23318;50.966;5.284;2023-02-01T01:13:37;6.10;99.90
37460;DHT22;23318;50.966;5.284;2023-02-01T01:16:05;6.30;99.90
37460;DHT22;23318;50.966;5.284;2023-02-01T01:18:32;6.30;99.90
37460;DHT22;23318;50.966;5.284;2023-02-01T01:20:59;6.40;99.90
37460;DHT22;23318;50.966;5.284;2023-02-01T01:23:25;6.30;99.90
37460;DHT22;23318;50.966;5.284;2023-02-01T01:25:50;6.30;99.90
37460;DHT22;23318;50.966;5.284;2023-02-01T01:28:16;6.20;99.90
37460;DHT22;23318;50.966;5.284;2023-02-01T01:30:42;6.20;99.90
37460;DHT22;23318;50.966;5.284;2023-02-01T01:33:08;6.20;99.90
37460;DHT22;23318;50.966;5.284;2023-02-01T01:35:34;6.30;99.90
37460;DHT22;23318;50.966;5.284;2023-02-01T01:38:00;6.20;99.90
37460;DHT22;23318;50.966;5.284;2023-02-01T01:40:27;6.30;99.90
37460;DHT22;23318;50.966;5.284;2023-02-01T01:42:53;6.20;99.90
37460;DHT22;23318;50.966;5.284;2023-02-01T01:47:56;6.20;99.90
37460;DHT22;23318;50.966;5.284;2023-02-01T01:50:37;6.10;99.90
37460;DHT22;23318;50.966;5.284;2023-02-01T01:53:06;6.10;99.90
37460;DHT22;23318;50.966;5.284;2023-02-01T01:55:36;6.10;99.90
37460;DHT22;23318;50.966;5.284;2023-02-01T01:58:06;6.00;99.90
37460;DHT22;23318;50.966;5.284;2023-02-01T02:00:34;6.10;99.90
37460;DHT22;23318;50.966;5.284;2023-02-01T02:03:11;6.20;99.90
37460;DHT22;23318;50.966;5.284;2023-02-01T02:05:39;6.20;99.90
37460;DHT22;23318;50.966;5.284;2023-02-01T02:08:05;6.10;99.90
37460;DHT22;23318;50.966;5.284;2023-02-01T02:10:31;6.20;99.90
37460;DHT22;23318;50.966;5.284;2023-02-01T02:13:16;6.10;99.90
37460;DHT22;23318;50.966;5.284;2023-02-01T02:15:49;6.20;99.90
37460;DHT22;23318;50.966;5.284;2023-02-01T02:21:17;6.30;99.90
37460;DHT22;23318;50.966;5.284;2023-02-01T02:27:36;6.20;99.90
37460;DHT22;23318;50.966;5.284;2023-02-01T02:32:51;6.40;99.90
37460;DHT22;23318;50.966;5.284;2023-02-01T02:35:29;6.40;99.90
37460;DHT22;23318;50.966;5.284;2023-02-01T02:44:32;6.40;99.90
37460;DHT22;23318;50.966;5.284;2023-02-01T02:47:35;6.60;99.90
37460;DHT22;23318;50.966;5.284;2023-02-01T02:50:27;6.50;99.90
37460;DHT22;23318;50.966;5.284;2023-02-01T02:53:23;6.50;99.90
37460;DHT22;23318;50.966;5.284;2023-02-01T02:56:10;6.60;99.90
37460;DHT22;23318;50.966;5.284;2023-02-01T02:58:55;6.50;99.90
37460;DHT22;23318;50.966;5.284;2023-02-01T03:01:41;6.50;99.90
37460;DHT22;23318;50.966;5.284;2023-02-01T03:04:25;6.50;99.90
37460;DHT22;23318;50.966;5.284;2023-02-01T03:06:52;6.30;99.90
37460;DHT22;23318;50.966;5.284;2023-02-01T03:09:31;6.40;99.90
37460;DHT22;23318;50.966;5.284;2023-02-01T03:12:01;6.20;99.90
37460;DHT22;23318;50.966;5.284;2023-02-01T03:14:52;6.30;99.90
37460;DHT22;23318;50.966;5.284;2023-02-01T03:17:24;6.20;99.90
37460;DHT22;23318;50.966;5.284;2023-02-01T03:19:52;6.20;99.90
37460;DHT22;23318;50.966;5.284;2023-02-01T03:22:23;6.20;99.90
37460;DHT22;23318;50.966;5.284;2023-02-01T03:24:59;6.00;99.90
37460;DHT22;23318;50.966;5.284;2023-02-01T03:27:33;6.00;99.90
37460;DHT22;23318;50.966;5.284;2023-02-01T03:30:11;6.10;99.90
37460;DHT22;23318;50.966;5.284;2023-02-01T03:32:44;6.10;99.90
37460;DHT22;23318;50.966;5.284;2023-02-01T03:40:37;6.00;99.90
37460;DHT22;23318;50.966;5.284;2023-02-01T03:43:05;6.00;99.90
37460;DHT22;23318;50.966;5.284;2023-02-01T03:45:43;5.90;99.90
37460;DHT22;23318;50.966;5.284;2023-02-01T03:48:10;6.00;99.90
37460;DHT22;23318;50.966;5.284;2023-02-01T03:50:43;6.00;99.90
37460;DHT22;23318;50.966;5.284;2023-02-01T03:53:16;5.90;99.90
37460;DHT22;23318;50.966;5.284;2023-02-01T03:55:43;5.80;99.90
37460;DHT22;23318;50.966;5.284;2023-02-01T03:58:20;5.80;99.90
37460;DHT22;23318;50.966;5.284;2023-02-01T04:00:55;5.80;99.90
37460;DHT22;23318;50.966;5.284;2023-02-01T04:03:22;5.70;99.90
37460;DHT22;23318;50.966;5.284;2023-02-01T04:05:52;5.60;99.90
37460;DHT22;23318;50.966;5.284;2023-02-01T04:08:21;5.60;99.90
37460;DHT22;23318;50.966;5.284;2023-02-01T04:10:47;5.70;99.90
37460;DHT22;23318;50.966;5.284;2023-02-01T04:13:13;5.70;99.90
37460;DHT22;23318;50.966;5.284;2023-02-01T04:15:40;5.60;99.90
37460;DHT22;23318;50.966;5.284;2023-02-01T04:18:05;5.70;99.90
37460;DHT22;23318;50.966;5.284;2023-02-01T04:20:31;5.70;99.90
37460;DHT22;23318;50.966;5.284;2023-02-01T04:22:57;5.70;99.90
37460;DHT22;23318;50.966;5.284;2023-02-01T04:25:23;5.70;99.90
37460;DHT22;23318;50.966;5.284;2023-02-01T04:27:49;5.70;99.90
37460;DHT22;23318;50.966;5.284;2023-02-01T04:30:15;5.70;99.90
37460;DHT22;23318;50.966;5.284;2023-02-01T04:32:41;5.60;99.90
37460;DHT22;23318;50.966;5.284;2023-02-01T04:35:07;5.60;99.90
37460;DHT22;23318;50.966;5.284;2023-02-01T04:37:33;5.60;99.90
37460;DHT22;23318;50.966;5.284;2023-02-01T04:39:59;5.50;99.90
37460;DHT22;23318;50.966;5.284;2023-02-01T04:42:25;5.60;99.90
37460;DHT22;23318;50.966;5.284;2023-02-01T04:44:51;5.60;99.90
37460;DHT22;23318;50.966;5.284;2023-02-01T04:47:17;5.50;99.90
37460;DHT22;23318;50.966;5.284;2023-02-01T04:49:42;5.60;99.90
37460;DHT22;23318;50.966;5.284;2023-02-01T04:52:08;5.60;99.90
37460;DHT22;23318;50.966;5.284;2023-02-01T04:54:34;5.60;99.90
37460;DHT22;23318;50.966;5.284;2023-02-01T04:57:00;5.60;99.90
37460;DHT22;23318;50.966;5.284;2023-02-01T04:59:26;5.50;99.90
37460;DHT22;23318;50.966;5.284;2023-02-01T05:01:51;5.60;99.90
37460;DHT22;23318;50.966;5.284;2023-02-01T05:04:17;5.60;99.90
37460;DHT22;23318;50.966;5.284;2023-02-01T05:06:44;5.60;99.90
37460;DHT22;23318;50.966;5.284;2023-02-01T05:09:10;5.60;99.90
37460;DHT22;23318;50.966;5.284;2023-02-01T05:11:36;5.60;99.90
37460;DHT22;23318;50.966;5.284;2023-02-01T05:14:20;5.60;99.90
37460;DHT22;23318;50.966;5.284;2023-02-01T05:16:46;5.60;99.90
37460;DHT22;23318;50.966;5.284;2023-02-01T05:19:12;5.60;99.90
37460;DHT22;23318;50.966;5.284;2023-02-01T05:21:37;5.70;99.90
37460;DHT22;23318;50.966;5.284;2023-02-01T05:24:03;5.60;99.90
37460;DHT22;23318;50.966;5.284;2023-02-01T05:26:36;5.60;99.90
37460;DHT22;23318;50.966;5.284;2023-02-01T05:29:03;5.60;99.90
37460;DHT22;23318;50.966;5.284;2023-02-01T05:31:29;5.50;99.90
37460;DHT22;23318;50.966;5.284;2023-02-01T05:33:55;5.60;99.90
37460;DHT22;23318;50.966;5.284;2023-02-01T05:36:20;5.50;99.90
37460;DHT22;23318;50.966;5.284;2023-02-01T05:38:46;5.60;99.90
37460;DHT22;23318;50.966;5.284;2023-02-01T05:41:12;5.60;99.90
37460;DHT22;23318;50.966;5.284;2023-02-01T05:43:37;5.60;99.90
37460;DHT22;23318;50.966;5.284;2023-02-01T05:46:03;5.50;99.90
37460;DHT22;23318;50.966;5.284;2023-02-01T05:48:29;5.40;99.90
37460;DHT22;23318;50.966;5.284;2023-02-01T05:50:55;5.40;99.90
37460;DHT22;23318;50.966;5.284;2023-02-01T05:53:21;5.40;99.90
37460;DHT22;23318;50.966;5.284;2023-02-01T05:55:46;5.40;99.90
37460;DHT22;23318;50.966;5.284;2023-02-01T05:58:12;5.40;99.90
37460;DHT22;23318;50.966;5.284;2023-02-01T06:00:38;5.40;99.90
37460;DHT22;23318;50.966;5.284;2023-02-01T06:03:04;5.40;99.90
37460;DHT22;23318;50.966;5.284;2023-02-01T06:05:30;5.40;99.90
37460;DHT22;23318;50.966;5.284;2023-02-01T06:07:56;5.30;99.90
37460;DHT22;23318;50.966;5.284;2023-02-01T06:10:22;5.30;99.90
37460;DHT22;23318;50.966;5.284;2023-02-01T06:12:48;5.30;99.90
37460;DHT22;23318;50.966;5.284;2023-02-01T06:15:14;5.40;99.90
37460;DHT22;23318;50.966;5.284;2023-02-01T06:17:45;5.30;99.90
37460;DHT22;23318;50.966;5.284;2023-02-01T06:20:12;5.30;99.90
37460;DHT22;23318;50.966;5.284;2023-02-01T06:22:39;5.20;99.90
37460;DHT22;23318;50.966;5.284;2023-02-01T06:25:06;5.20;99.90
37460;DHT22;23318;50.966;5.284;2023-02-01T06:27:32;5.20;99.90
37460;DHT22;23318;50.966;5.284;2023-02-01T06:29:58;5.20;99.90
37460;DHT22;23318;50.966;5.284;2023-02-01T06:32:24;5.20;99.90
37460;DHT22;23318;50.966;5.284;2023-02-01T06:34:50;5.20;99.90
37460;DHT22;23318;50.966;5.284;2023-02-01T06:37:21;5.20;99.90
37460;DHT22;23318;50.966;5.284;2023-02-01T06:39:46;5.20;99.90
37460;DHT22;23318;50.966;5.284;2023-02-01T06:42:12;5.20;99.90
37460;DHT22;23318;50.966;5.284;2023-02-01T06:44:38;5.20;99.90
37460;DHT22;23318;50.966;5.284;2023-02-01T06:47:04;5.30;99.90
37460;DHT22;23318;50.966;5.284;2023-02-01T06:49:30;5.20;99.90
37460;DHT22;23318;50.966;5.284;2023-02-01T06:51:55;5.10;99.90
37460;DHT22;23318;50.966;5.284;2023-02-01T06:54:21;5.20;99.90
37460;DHT22;23318;50.966;5.284;2023-02-01T06:56:47;5.20;99.90
37460;DHT22;23318;50.966;5.284;2023-02-01T06:59:13;5.10;99.90
37460;DHT22;23318;50.966;5.284;2023-02-01T07:01:39;5.10;99.90
37460;DHT22;23318;50.966;5.284;2023-02-01T07:04:04;5.00;99.90
37460;DHT22;23318;50.966;5.284;2023-02-01T07:06:30;5.00;99.90
37460;DHT22;23318;50.966;5.284;2023-02-01T07:08:57;5.10;99.90
37460;DHT22;23318;50.966;5.284;2023-02-01T07:11:22;5.10;99.90
37460;DHT22;23318;50.966;5.284;2023-02-01T07:13:48;5.00;99.90
37460;DHT22;23318;50.966;5.284;2023-02-01T07:16:18;5.00;99.90
37460;DHT22;23318;50.966;5.284;2023-02-01T07:18:44;5.00;99.90
37460;DHT22;23318;50.966;5.284;2023-02-01T07:21:10;5.00;99.90
37460;DHT22;23318;50.966;5.284;2023-02-01T07:23:37;5.00;99.90
37460;DHT22;23318;50.966;5.284;2023-02-01T07:26:05;5.00;99.90
37460;DHT22;23318;50.966;5.284;2023-02-01T07:28:33;5.00;99.90
37460;DHT22;23318;50.966;5.284;2023-02-01T07:31:07;5.00;99.90
37460;DHT22;23318;50.966;5.284;2023-02-01T07:33:34;5.00;99.90
37460;DHT22;23318;50.966;5.284;2023-02-01T07:36:02;5.00;99.90
37460;DHT22;23318;50.966;5.284;2023-02-01T07:38:28;4.90;99.90
37460;DHT22;23318;50.966;5.284;2023-02-01T07:40:59;5.00;99.90
37460;DHT22;23318;50.966;5.284;2023-02-01T07:43:25;4.90;99.90
37460;DHT22;23318;50.966;5.284;2023-02-01T07:45:52;5.00;99.90
37460;DHT22;23318;50.966;5.284;2023-02-01T07:48:18;5.00;99.90
37460;DHT22;23318;50.966;5.284;2023-02-01T07:50:44;5.00;99.90
37460;DHT22;23318;50.966;5.284;2023-02-01T07:53:10;5.00;99.90
37460;DHT22;23318;50.966;5.284;2023-02-01T07:55:38;4.90;99.90
37460;DHT22;23318;50.966;5.284;2023-02-01T07:58:04;5.00;99.90
37460;DHT22;23318;50.966;5.284;2023-02-01T08:00:29;5.00;99.90
37460;DHT22;23318;50.966;5.284;2023-02-01T08:03:13;5.00;99.90
37460;DHT22;23318;50.966;5.284;2023-02-01T08:05:39;5.00;99.90
37460;DHT22;23318;50.966;5.284;2023-02-01T08:08:05;5.10;99.90
37460;DHT22;23318;50.966;5.284;2023-02-01T08:10:31;5.10;99.90
37460;DHT22;23318;50.966;5.284;2023-02-01T08:13:01;5.00;99.90
37460;DHT22;23318;50.966;5.284;2023-02-01T08:15:27;5.10;99.90
37460;DHT22;23318;50.966;5.284;2023-02-01T08:17:53;5.10;99.90
37460;DHT22;23318;50.966;5.284;2023-02-01T08:20:23;5.20;99.90
37460;DHT22;23318;50.966;5.284;2023-02-01T08:22:50;5.20;99.90
37460;DHT22;23318;50.966;5.284;2023-02-01T08:25:15;5.30;99.90
37460;DHT22;23318;50.966;5.284;2023-02-01T08:27:41;5.40;99.90
37460;DHT22;23318;50.966;5.284;2023-02-01T08:30:08;5.60;99.90
37460;DHT22;23318;50.966;5.284;2023-02-01T08:32:34;5.70;99.90
37460;DHT22;23318;50.966;5.284;2023-02-01T08:35:01;5.90;99.90
37460;DHT22;23318;50.966;5.284;2023-02-01T08:37:26;5.90;99.90
37460;DHT22;23318;50.966;5.284;2023-02-01T08:39:52;6.00;99.90
37460;DHT22;23318;50.966;5.284;2023-02-01T08:42:18;6.00;99.90
37460;DHT22;23318;50.966;5.284;2023-02-01T08:45:02;6.00;99.90
37460;DHT22;23318;50.966;5.284;2023-02-01T08:47:28;6.00;99.90
37460;DHT22;23318;50.966;5.284;2023-02-01T08:49:54;6.10;99.90
37460;DHT22;23318;50.966;5.284;2023-02-01T08:52:20;6.10;99.90
37460;DHT22;23318;50.966;5.284;2023-02-01T08:54:45;6.20;99.90
37460;DHT22;23318;50.966;5.284;2023-02-01T08:57:11;6.20;99.90
37460;DHT22;23318;50.966;5.284;2023-02-01T08:59:37;6.30;99.90
37460;DHT22;23318;50.966;5.284;2023-02-01T09:02:03;6.20;99.90
37460;DHT22;23318;50.966;5.284;2023-02-01T09:04:28;6.20;99.90
37460;DHT22;23318;50.966;5.284;2023-02-01T09:06:54;6.20;99.90
37460;DHT22;23318;50.966;5.284;2023-02-01T09:09:22;6.30;99.90
37460;DHT22;23318;50.966;5.284;2023-02-01T09:11:48;6.40;99.90
37460;DHT22;23318;50.966;5.284;2023-02-01T09:14:15;6.40;99.90
37460;DHT22;23318;50.966;5.284;2023-02-01T09:16:41;6.40;99.90
37460;DHT22;23318;50.966;5.284;2023-02-01T09:19:07;6.50;99.90
37460;DHT22;23318;50.966;5.284;2023-02-01T09:21:32;6.40;99.90
37460;DHT22;23318;50.966;5.284;2023-02-01T09:23:58;6.40;99.90
37460;DHT22;23318;50.966;5.284;2023-02-01T09:26:24;6.40;99.90
37460;DHT22;23318;50.966;5.284;2023-02-01T09:28:51;6.50;99.90
37460;DHT22;23318;50.966;5.284;2023-02-01T09:31:16;6.50;99.90
37460;DHT22;23318;50.966;5.284;2023-02-01T09:33:42;6.50;99.90
37460;DHT22;23318;50.966;5.284;2023-02-01T09:36:08;6.50;99.90
37460;DHT22;23318;50.966;5.284;2023-02-01T09:38:33;6.40;99.90
37460;DHT22;23318;50.966;5.284;2023-02-01T09:40:59;6.50;99.90
37460;DHT22;23318;50.966;5.284;2023-02-01T09:46:23;6.40;99.90
37460;DHT22;23318;50.966;5.284;2023-02-01T09:48:53;6.60;99.90
37460;DHT22;23318;50.966;5.284;2023-02-01T09:51:23;6.60;99.90
37460;DHT22;23318;50.966;5.284;2023-02-01T09:56:47;6.80;99.90
37460;DHT22;23318;50.966;5.284;2023-02-01T09:59:43;6.90;99.90
37460;DHT22;23318;50.966;5.284;2023-02-01T10:02:25;7.00;99.90
37460;DHT22;23318;50.966;5.284;2023-02-01T10:04:54;7.10;99.90
37460;DHT22;23318;50.966;5.284;2023-02-01T10:10:31;7.20;99.90
37460;DHT22;23318;50.966;5.284;2023-02-01T10:16:16;7.20;99.90
37460;DHT22;23318;50.966;5.284;2023-02-01T10:19:04;7.40;99.90
37460;DHT22;23318;50.966;5.284;2023-02-01T10:30:03;8.10;99.90
37460;DHT22;23318;50.966;5.284;2023-02-01T10:32:32;8.90;99.90
37460;DHT22;23318;50.966;5.284;2023-02-01T10:35:02;9.40;99.90
37460;DHT22;23318;50.966;5.284;2023-02-01T10:37:33;9.70;99.90
37460;DHT22;23318;50.966;5.284;2023-02-01T10:42:48;9.70;99.90
37460;DHT22;23318;50.966;5.284;2023-02-01T10:45:29;9.80;99.90
37460;DHT22;23318;50.966;5.284;2023-02-01T10:47:57;10.00;99.90
37460;DHT22;23318;50.966;5.284;2023-02-01T10:50:48;10.20;99.90
37460;DHT22;23318;50.966;5.284;2023-02-01T10:53:29;9.90;99.90
37460;DHT22;23318;50.966;5.284;2023-02-01T10:55:56;9.50;99.90
37460;DHT22;23318;50.966;5.284;2023-02-01T10:58:30;9.70;99.90
37460;DHT22;23318;50.966;5.284;2023-02-01T11:01:04;10.00;99.90
37460;DHT22;23318;50.966;5.284;2023-02-01T11:03:54;10.60;99.90
37460;DHT22;23318;50.966;5.284;2023-02-01T11:06:39;10.20;99.90
37460;DHT22;23318;50.966;5.284;2023-02-01T11:11:31;10.00;99.90
37460;DHT22;23318;50.966;5.284;2023-02-01T11:14:17;10.50;99.90
37460;DHT22;23318;50.966;5.284;2023-02-01T11:16:54;9.70;99.90
37460;DHT22;23318;50.966;5.284;2023-02-01T11:19:20;9.70;99.90
37460;DHT22;23318;50.966;5.284;2023-02-01T11:21:51;9.80;99.90
37460;DHT22;23318;50.966;5.284;2023-02-01T11:24:31;10.20;99.90
37460;DHT22;23318;50.966;5.284;2023-02-01T11:27:01;9.70;99.90
37460;DHT22;23318;50.966;5.284;2023-02-01T11:29:36;10.00;99.90
37460;DHT22;23318;50.966;5.284;2023-02-01T11:32:03;10.10;99.90
37460;DHT22;23318;50.966;5.284;2023-02-01T11:34:47;10.50;99.90
37460;DHT22;23318;50.966;5.284;2023-02-01T11:37:23;11.00;99.90
37460;DHT22;23318;50.966;5.284;2023-02-01T11:39:55;10.50;99.90
37460;DHT22;23318;50.966;5.284;2023-02-01T11:42:21;10.20;99.90
37460;DHT22;23318;50.966;5.284;2023-02-01T11:44:48;10.40;99.90
37460;DHT22;23318;50.966;5.284;2023-02-01T11:47:27;10.30;99.90
37460;DHT22;23318;50.966;5.284;2023-02-01T11:50:12;10.50;99.90
37460;DHT22;23318;50.966;5.284;2023-02-01T12:01:47;9.60;99.90
37460;DHT22;23318;50.966;5.284;2023-02-01T12:04:54;9.80;99.90
37460;DHT22;23318;50.966;5.284;2023-02-01T12:07:48;9.50;99.90
37460;DHT22;23318;50.966;5.284;2023-02-01T12:10:23;9.40;99.90
37460;DHT22;23318;50.966;5.284;2023-02-01T12:15:53;9.30;99.90
37460;DHT22;23318;50.966;5.284;2023-02-01T12:26:30;9.50;99.90
37460;DHT22;23318;50.966;5.284;2023-02-01T12:32:06;9.60;99.90
37460;DHT22;23318;50.966;5.284;2023-02-01T12:40:31;9.10;99.90
37460;DHT22;23318;50.966;5.284;2023-02-01T12:45:52;9.00;99.90
37460;DHT22;23318;50.966;5.284;2023-02-01T12:50:56;9.00;99.90
37460;DHT22;23318;50.966;5.284;2023-02-01T12:53:51;8.90;99.90
37460;DHT22;23318;50.966;5.284;2023-02-01T12:59:03;9.00;99.90
37460;DHT22;23318;50.966;5.284;2023-02-01T13:01:42;9.00;99.90
37460;DHT22;23318;50.966;5.284;2023-02-01T13:04:30;9.00;99.90
37460;DHT22;23318;50.966;5.284;2023-02-01T13:07:10;9.10;99.90
37460;DHT22;23318;50.966;5.284;2023-02-01T13:09:45;9.00;99.90
37460;DHT22;23318;50.966;5.284;2023-02-01T13:12:25;9.10;99.90
37460;DHT22;23318;50.966;5.284;2023-02-01T13:15:03;9.00;99.90
37460;DHT22;23318;50.966;5.284;2023-02-01T13:17:32;8.90;99.90
37460;DHT22;23318;50.966;5.284;2023-02-01T13:22:57;8.90;99.90
37460;DHT22;23318;50.966;5.284;2023-02-01T13:25:35;8.90;99.90
37460;DHT22;23318;50.966;5.284;2023-02-01T13:28:12;9.00;99.90
37460;DHT22;23318;50.966;5.284;2023-02-01T13:31:06;9.10;99.90
37460;DHT22;23318;50.966;5.284;2023-02-01T13:33:51;9.00;99.90
37460;DHT22;23318;50.966;5.284;2023-02-01T13:44:45;9.10;99.90
37460;DHT22;23318;50.966;5.284;2023-02-01T13:47:28;9.20;99.90
37460;DHT22;23318;50.966;5.284;2023-02-01T13:49:57;9.10;99.90
37460;DHT22;23318;50.966;5.284;2023-02-01T13:52:39;9.10;99.90
37460;DHT22;23318;50.966;5.284;2023-02-01T13:57:47;9.20;99.90
37460;DHT22;23318;50.966;5.284;2023-02-01T14:00:33;9.20;99.90
37460;DHT22;23318;50.966;5.284;2023-02-01T14:10:55;9.20;99.90
37460;DHT22;23318;50.966;5.284;2023-02-01T14:26:44;9.20;99.90
37460;DHT22;23318;50.966;5.284;2023-02-01T14:31:54;9.20;99.90
37460;DHT22;23318;50.966;5.284;2023-02-01T14:39:46;9.30;99.90
37460;DHT22;23318;50.966;5.284;2023-02-01T14:42:45;9.30;99.90
37460;DHT22;23318;50.966;5.284;2023-02-01T14:50:34;9.30;99.90
37460;DHT22;23318;50.966;5.284;2023-02-01T14:58:41;9.20;99.90
37460;DHT22;23318;50.966;5.284;2023-02-01T15:01:53;9.30;99.90
37460;DHT22;23318;50.966;5.284;2023-02-01T15:04:20;9.30;99.90
37460;DHT22;23318;50.966;5.284;2023-02-01T15:09:30;9.30;99.90
37460;DHT22;23318;50.966;5.284;2023-02-01T15:12:05;9.20;99.90
37460;DHT22;23318;50.966;5.284;2023-02-01T15:14:36;9.20;99.90
37460;DHT22;23318;50.966;5.284;2023-02-01T15:17:15;9.20;99.90
37460;DHT22;23318;50.966;5.284;2023-02-01T15:19:55;9.20;99.90
37460;DHT22;23318;50.966;5.284;2023-02-01T15:22:21;9.20;99.90
37460;DHT22;23318;50.966;5.284;2023-02-01T15:24:55;9.10;99.90
37460;DHT22;23318;50.966;5.284;2023-02-01T15:27:21;9.10;99.90
37460;DHT22;23318;50.966;5.284;2023-02-01T15:29:47;9.00;99.90
37460;DHT22;23318;50.966;5.284;2023-02-01T15:32:33;9.00;99.90
37460;DHT22;23318;50.966;5.284;2023-02-01T15:34:59;9.10;99.90
37460;DHT22;23318;50.966;5.284;2023-02-01T15:37:27;9.10;99.90
37460;DHT22;23318;50.966;5.284;2023-02-01T15:42:57;9.10;99.90
37460;DHT22;23318;50.966;5.284;2023-02-01T15:45:28;9.10;99.90
37460;DHT22;23318;50.966;5.284;2023-02-01T15:47:56;9.00;99.90
37460;DHT22;23318;50.966;5.284;2023-02-01T15:50:22;9.00;99.90
37460;DHT22;23318;50.966;5.284;2023-02-01T15:52:50;9.00;99.90
37460;DHT22;23318;50.966;5.284;2023-02-01T15:57:42;9.00;99.90
37460;DHT22;23318;50.966;5.284;2023-02-01T16:00:26;8.90;99.90
37460;DHT22;23318;50.966;5.284;2023-02-01T16:02:55;8.80;99.90
37460;DHT22;23318;50.966;5.284;2023-02-01T16:05:36;8.70;99.90
37460;DHT22;23318;50.966;5.284;2023-02-01T16:08:21;8.70;99.90
37460;DHT22;23318;50.966;5.284;2023-02-01T16:10:50;8.50;99.90
37460;DHT22;23318;50.966;5.284;2023-02-01T16:13:20;8.40;99.90
37460;DHT22;23318;50.966;5.284;2023-02-01T16:15:46;8.50;99.90
37460;DHT22;23318;50.966;5.284;2023-02-01T16:18:13;8.50;99.90
37460;DHT22;23318;50.966;5.284;2023-02-01T16:20:40;8.50;99.90
37460;DHT22;23318;50.966;5.284;2023-02-01T16:23:07;8.50;99.90
37460;DHT22;23318;50.966;5.284;2023-02-01T16:25:34;8.60;99.90
37460;DHT22;23318;50.966;5.284;2023-02-01T16:28:00;8.70;99.90
37460;DHT22;23318;50.966;5.284;2023-02-01T16:30:26;8.70;99.90
37460;DHT22;23318;50.966;5.284;2023-02-01T16:32:52;8.70;99.90
37460;DHT22;23318;50.966;5.284;2023-02-01T16:35:35;8.70;99.90
37460;DHT22;23318;50.966;5.284;2023-02-01T16:38:10;8.80;99.90
37460;DHT22;23318;50.966;5.284;2023-02-01T16:40:39;8.70;99.90
37460;DHT22;23318;50.966;5.284;2023-02-01T16:43:13;8.70;99.90
37460;DHT22;23318;50.966;5.284;2023-02-01T16:45:38;8.70;99.90
37460;DHT22;23318;50.966;5.284;2023-02-01T16:48:06;8.60;99.90
37460;DHT22;23318;50.966;5.284;2023-02-01T16:50:32;8.60;99.90
37460;DHT22;23318;50.966;5.284;2023-02-01T16:52:59;8.50;99.90
37460;DHT22;23318;50.966;5.284;2023-02-01T16:55:24;8.40;99.90
37460;DHT22;23318;50.966;5.284;2023-02-01T16:57:51;8.40;99.90
37460;DHT22;23318;50.966;5.284;2023-02-01T17:00:17;8.40;99.90
37460;DHT22;23318;50.966;5.284;2023-02-01T17:02:44;8.40;99.90
37460;DHT22;23318;50.966;5.284;2023-02-01T17:05:11;8.50;99.90
37460;DHT22;23318;50.966;5.284;2023-02-01T17:07:38;8.60;99.90
37460;DHT22;23318;50.966;5.284;2023-02-01T17:10:05;8.50;99.90
37460;DHT22;23318;50.966;5.284;2023-02-01T17:12:32;8.50;99.90
37460;DHT22;23318;50.966;5.284;2023-02-01T17:14:58;8.50;99.90
37460;DHT22;23318;50.966;5.284;2023-02-01T17:17:33;8.50;99.90
37460;DHT22;23318;50.966;5.284;2023-02-01T17:20:00;8.50;99.90
37460;DHT22;23318;50.966;5.284;2023-02-01T17:22:26;8.50;99.90
37460;DHT22;23318;50.966;5.284;2023-02-01T17:24:52;8.50;99.90
37460;DHT22;23318;50.966;5.284;2023-02-01T17:27:18;8.40;99.90
37460;DHT22;23318;50.966;5.284;2023-02-01T17:29:44;8.40;99.90
37460;DHT22;23318;50.966;5.284;2023-02-01T17:32:22;8.40;99.90
37460;DHT22;23318;50.966;5.284;2023-02-01T17:34:49;8.40;99.90
37460;DHT22;23318;50.966;5.284;2023-02-01T17:37:24;8.30;99.90
37460;DHT22;23318;50.966;5.284;2023-02-01T17:39:49;8.30;99.90
37460;DHT22;23318;50.966;5.284;2023-02-01T17:42:22;8.20;99.90
37460;DHT22;23318;50.966;5.284;2023-02-01T17:44:49;8.20;99.90
37460;DHT22;23318;50.966;5.284;2023-02-01T17:47:16;8.20;99.90
37460;DHT22;23318;50.966;5.284;2023-02-01T17:49:41;8.10;99.90
37460;DHT22;23318;50.966;5.284;2023-02-01T17:52:14;8.20;99.90
37460;DHT22;23318;50.966;5.284;2023-02-01T17:54:41;8.20;99.90
37460;DHT22;23318;50.966;5.284;2023-02-01T17:57:11;8.10;99.90
37460;DHT22;23318;50.966;5.284;2023-02-01T17:59:37;8.20;99.90
37460;DHT22;23318;50.966;5.284;2023-02-01T18:02:02;8.20;99.90
37460;DHT22;23318;50.966;5.284;2023-02-01T18:04:28;8.30;99.90
37460;DHT22;23318;50.966;5.284;2023-02-01T18:06:54;8.20;99.90
37460;DHT22;23318;50.966;5.284;2023-02-01T18:09:19;8.30;99.90
37460;DHT22;23318;50.966;5.284;2023-02-01T18:11:45;8.30;99.90
37460;DHT22;23318;50.966;5.284;2023-02-01T18:14:13;8.30;99.90
37460;DHT22;23318;50.966;5.284;2023-02-01T18:16:39;8.30;99.90
37460;DHT22;23318;50.966;5.284;2023-02-01T18:19:06;8.20;99.90
37460;DHT22;23318;50.966;5.284;2023-02-01T18:21:34;8.20;99.90
37460;DHT22;23318;50.966;5.284;2023-02-01T18:24:00;8.20;99.90
37460;DHT22;23318;50.966;5.284;2023-02-01T18:26:27;8.30;99.90
37460;DHT22;23318;50.966;5.284;2023-02-01T18:28:52;8.30;99.90
37460;DHT22;23318;50.966;5.284;2023-02-01T18:31:24;8.30;99.90
37460;DHT22;23318;50.966;5.284;2023-02-01T18:33:51;8.30;99.90